createdAt,value
2023-02-27T00:00:58.405Z,1014.86
2023-02-27T00:01:59.289Z,1014.83
2023-02-27T00:03:00.260Z,1014.82
2023-02-27T00:04:01.167Z,1014.80
2023-02-27T00:05:02.043Z,1014.80
2023-02-27T00:06:02.927Z,1014.79
2023-02-27T00:07:03.820Z,1014.77
2023-02-27T00:08:04.704Z,1014.76
2023-02-27T00:09:05.623Z,1014.77
2023-02-27T00:10:06.503Z,1014.77
2023-02-27T00:11:07.380Z,1014.76
2023-02-27T00:12:08.272Z,1014.76
2023-02-27T00:13:09.169Z,1014.77
2023-02-27T00:14:10.039Z,1014.76
2023-02-27T00:15:10.937Z,1014.75
2023-02-27T00:16:12.943Z,1014.77
2023-02-27T00:17:12.426Z,1014.78
2023-02-27T00:18:13.313Z,1014.74
2023-02-27T00:19:14.209Z,1014.78
2023-02-27T00:20:15.080Z,1014.78
2023-02-27T00:21:15.962Z,1014.83
2023-02-27T00:22:16.847Z,1014.83
2023-02-27T00:23:17.741Z,1014.84
2023-02-27T00:24:18.618Z,1014.85
2023-02-27T00:25:19.509Z,1014.83
2023-02-27T00:26:20.384Z,1014.83
2023-02-27T00:27:21.277Z,1014.83
2023-02-27T00:28:22.181Z,1014.83
2023-02-27T00:29:23.035Z,1014.83
2023-02-27T00:30:24.034Z,1014.82
2023-02-27T00:31:25.356Z,1014.83
2023-02-27T00:32:25.458Z,1014.81
2023-02-27T00:33:26.332Z,1014.81
2023-02-27T00:34:27.184Z,1014.81
2023-02-27T00:35:28.067Z,1014.79
2023-02-27T00:36:28.948Z,1014.79
2023-02-27T00:37:29.847Z,1014.77
2023-02-27T00:38:30.719Z,1014.78
2023-02-27T00:39:31.601Z,1014.77
2023-02-27T00:40:32.475Z,1014.80
2023-02-27T00:41:33.359Z,1014.81
2023-02-27T00:42:34.253Z,1014.81
2023-02-27T00:43:35.154Z,1014.81
2023-02-27T00:44:36.011Z,1014.83
2023-02-27T00:45:36.895Z,1014.85
2023-02-27T00:46:37.864Z,1014.84
2023-02-27T00:47:38.742Z,1014.83
2023-02-27T00:48:39.616Z,1014.84
2023-02-27T00:49:40.503Z,1014.86
2023-02-27T00:50:41.384Z,1014.87
2023-02-27T00:51:42.275Z,1014.86
2023-02-27T00:52:43.163Z,1014.89
2023-02-27T00:53:44.030Z,1014.90
2023-02-27T00:54:44.915Z,1014.88
2023-02-27T00:55:45.800Z,1014.90
2023-02-27T00:56:46.683Z,1014.89
2023-02-27T00:57:47.626Z,1014.92
2023-02-27T00:58:48.491Z,1014.96
2023-02-27T00:59:49.378Z,1015.00
2023-02-27T01:00:50.275Z,1014.99
2023-02-27T01:01:51.138Z,1014.97
2023-02-27T01:02:52.082Z,1015.00
2023-02-27T01:03:52.917Z,1015.00
2023-02-27T01:04:53.791Z,1015.01
2023-02-27T01:05:54.677Z,1015.01
2023-02-27T01:06:55.560Z,1014.99
2023-02-27T01:07:56.463Z,1014.97
2023-02-27T01:08:57.339Z,1014.96
2023-02-27T01:09:58.226Z,1014.96
2023-02-27T01:10:59.113Z,1014.96
2023-02-27T01:11:59.992Z,1014.97
2023-02-27T01:13:00.879Z,1014.95
2023-02-27T01:14:01.789Z,1014.96
2023-02-27T01:15:02.641Z,1014.94
2023-02-27T01:16:03.545Z,1014.94
2023-02-27T01:17:04.402Z,1014.93
2023-02-27T01:18:05.301Z,1014.97
2023-02-27T01:19:06.178Z,1014.95
2023-02-27T01:20:07.060Z,1014.95
2023-02-27T01:21:07.942Z,1014.94
2023-02-27T01:22:08.817Z,1014.93
2023-02-27T01:23:09.711Z,1014.91
2023-02-27T01:24:10.597Z,1014.93
2023-02-27T01:25:11.485Z,1014.94
2023-02-27T01:26:12.364Z,1014.95
2023-02-27T01:27:13.246Z,1014.94
2023-02-27T01:28:14.141Z,1014.94
2023-02-27T01:29:15.053Z,1014.94
2023-02-27T01:30:15.914Z,1014.95
2023-02-27T01:31:16.879Z,1014.93
2023-02-27T01:32:17.796Z,1014.96
2023-02-27T01:33:18.663Z,1014.96
2023-02-27T01:34:19.537Z,1014.96
2023-02-27T01:35:20.428Z,1014.98
2023-02-27T01:36:21.305Z,1014.97
2023-02-27T01:37:22.192Z,1014.95
2023-02-27T01:38:23.084Z,1014.97
2023-02-27T01:39:23.968Z,1014.98
2023-02-27T01:40:24.845Z,1014.97
2023-02-27T01:41:26.164Z,1014.96
2023-02-27T01:42:26.643Z,1014.99
2023-02-27T01:43:27.535Z,1015.00
2023-02-27T01:44:28.447Z,1015.00
2023-02-27T01:45:29.338Z,1015.01
2023-02-27T01:46:30.197Z,1015.00
2023-02-27T01:47:31.078Z,1014.98
2023-02-27T01:48:31.971Z,1014.95
2023-02-27T01:49:32.849Z,1014.95
2023-02-27T01:50:33.725Z,1014.92
2023-02-27T01:51:34.619Z,1014.93
2023-02-27T01:52:35.493Z,1014.91
2023-02-27T01:53:36.387Z,1014.92
2023-02-27T01:54:37.263Z,1014.90
2023-02-27T01:55:38.147Z,1014.90
2023-02-27T01:56:39.029Z,1014.89
2023-02-27T01:57:39.912Z,1014.89
2023-02-27T01:58:40.807Z,1014.88
2023-02-27T01:59:41.714Z,1014.88
2023-02-27T02:00:42.577Z,1014.86
2023-02-27T02:01:43.460Z,1014.86
2023-02-27T02:02:44.333Z,1014.84
2023-02-27T02:03:45.229Z,1014.85
2023-02-27T02:04:46.108Z,1014.84
2023-02-27T02:05:47.006Z,1014.82
2023-02-27T02:06:47.873Z,1014.81
2023-02-27T02:07:48.760Z,1014.79
2023-02-27T02:08:49.652Z,1014.78
2023-02-27T02:09:50.538Z,1014.80
2023-02-27T02:10:51.430Z,1014.79
2023-02-27T02:11:52.300Z,1014.81
2023-02-27T02:12:53.214Z,1014.81
2023-02-27T02:13:54.109Z,1014.82
2023-02-27T02:14:55.020Z,1014.80
2023-02-27T02:15:55.867Z,1014.77
2023-02-27T02:16:56.780Z,1014.77
2023-02-27T02:17:57.634Z,1014.78
2023-02-27T02:18:58.525Z,1014.75
2023-02-27T02:19:59.403Z,1014.76
2023-02-27T02:21:00.289Z,1014.73
2023-02-27T02:22:01.173Z,1014.74
2023-02-27T02:23:02.044Z,1014.72
2023-02-27T02:24:02.937Z,1014.73
2023-02-27T02:25:03.820Z,1014.76
2023-02-27T02:26:04.706Z,1014.80
2023-02-27T02:27:05.594Z,1014.80
2023-02-27T02:28:06.475Z,1014.82
2023-02-27T02:29:07.360Z,1014.82
2023-02-27T02:30:08.268Z,1014.82
2023-02-27T02:31:09.277Z,1014.81
2023-02-27T02:32:09.710Z,1014.83
2023-02-27T02:33:10.557Z,1014.81
2023-02-27T02:34:11.450Z,1014.82
2023-02-27T02:35:12.326Z,1014.84
2023-02-27T02:36:13.205Z,1014.84
2023-02-27T02:37:14.094Z,1014.87
2023-02-27T02:38:14.972Z,1014.86
2023-02-27T02:39:15.869Z,1014.86
2023-02-27T02:40:16.760Z,1014.81
2023-02-27T02:41:17.636Z,1014.83
2023-02-27T02:42:18.520Z,1014.81
2023-02-27T02:43:19.399Z,1014.82
2023-02-27T02:44:20.288Z,1014.82
2023-02-27T02:45:21.192Z,1014.81
2023-02-27T02:46:22.083Z,1014.81
2023-02-27T02:47:22.945Z,1014.81
2023-02-27T02:48:23.821Z,1014.80
2023-02-27T02:49:24.718Z,1014.81
2023-02-27T02:50:25.605Z,1014.82
2023-02-27T02:51:26.900Z,1014.82
2023-02-27T02:52:27.388Z,1014.82
2023-02-27T02:53:36.118Z,1014.81
2023-02-27T02:54:30.054Z,1014.82
2023-02-27T02:55:29.942Z,1014.80
2023-02-27T02:56:30.819Z,1014.83
2023-02-27T02:57:31.720Z,1014.82
2023-02-27T02:58:32.601Z,1014.79
2023-02-27T02:59:33.471Z,1014.81
2023-02-27T03:00:34.383Z,1014.81
2023-02-27T03:01:35.325Z,1014.79
2023-02-27T03:02:36.147Z,1014.76
2023-02-27T03:03:37.030Z,1014.79
2023-02-27T03:04:37.982Z,1014.80
2023-02-27T03:05:38.819Z,1014.81
2023-02-27T03:06:39.708Z,1014.80
2023-02-27T03:07:40.673Z,1014.81
2023-02-27T03:08:41.517Z,1014.80
2023-02-27T03:09:42.408Z,1014.76
2023-02-27T03:10:43.299Z,1014.78
2023-02-27T03:11:44.174Z,1014.77
2023-02-27T03:12:45.057Z,1014.77
2023-02-27T03:13:45.943Z,1014.77
2023-02-27T03:14:46.843Z,1014.73
2023-02-27T03:15:47.824Z,1014.75
2023-02-27T03:16:48.640Z,1014.74
2023-02-27T03:17:49.523Z,1014.74
2023-02-27T03:18:50.451Z,1014.75
2023-02-27T03:19:51.281Z,1014.75
2023-02-27T03:20:52.164Z,1014.74
2023-02-27T03:21:53.063Z,1014.74
2023-02-27T03:22:53.931Z,1014.73
2023-02-27T03:23:54.826Z,1014.74
2023-02-27T03:24:55.787Z,1014.74
2023-02-27T03:25:58.372Z,1014.73
2023-02-27T03:26:57.356Z,1014.78
2023-02-27T03:27:58.240Z,1014.78
2023-02-27T03:28:59.124Z,1014.81
2023-02-27T03:30:00.020Z,1014.81
2023-02-27T03:31:01.120Z,1014.81
2023-02-27T03:32:01.577Z,1014.84
2023-02-27T03:33:02.418Z,1014.85
2023-02-27T03:34:03.305Z,1014.85
2023-02-27T03:35:04.200Z,1014.84
2023-02-27T03:36:05.082Z,1014.84
2023-02-27T03:37:05.960Z,1014.83
2023-02-27T03:38:06.839Z,1014.84
2023-02-27T03:39:07.722Z,1014.84
2023-02-27T03:40:08.613Z,1014.84
2023-02-27T03:41:09.504Z,1014.83
2023-02-27T03:42:10.376Z,1014.83
2023-02-27T03:43:11.268Z,1014.87
2023-02-27T03:44:12.151Z,1014.86
2023-02-27T03:45:13.044Z,1014.86
2023-02-27T03:46:14.085Z,1014.87
2023-02-27T03:47:14.452Z,1014.88
2023-02-27T03:48:15.331Z,1014.89
2023-02-27T03:49:16.212Z,1014.92
2023-02-27T03:50:17.107Z,1014.91
2023-02-27T03:51:17.990Z,1014.90
2023-02-27T03:52:18.878Z,1014.89
2023-02-27T03:53:19.759Z,1014.89
2023-02-27T03:54:20.634Z,1014.92
2023-02-27T03:55:21.535Z,1014.93
2023-02-27T03:56:22.407Z,1014.94
2023-02-27T03:57:23.290Z,1014.92
2023-02-27T03:58:24.184Z,1014.94
2023-02-27T03:59:25.057Z,1014.94
2023-02-27T04:00:25.943Z,1014.95
2023-02-27T04:01:27.347Z,1014.97
2023-02-27T04:02:27.441Z,1014.97
2023-02-27T04:03:28.302Z,1014.97
2023-02-27T04:04:29.188Z,1014.99
2023-02-27T04:05:30.106Z,1014.98
2023-02-27T04:06:30.968Z,1015.00
2023-02-27T04:07:31.851Z,1014.99
2023-02-27T04:08:32.728Z,1015.02
2023-02-27T04:09:33.613Z,1014.99
2023-02-27T04:10:34.507Z,1015.01
2023-02-27T04:11:35.391Z,1015.02
2023-02-27T04:12:36.273Z,1015.02
2023-02-27T04:13:37.148Z,1015.03
2023-02-27T04:14:38.033Z,1015.05
2023-02-27T04:15:38.931Z,1015.06
2023-02-27T04:16:39.822Z,1015.03
2023-02-27T04:17:40.682Z,1015.04
2023-02-27T04:18:41.562Z,1015.05
2023-02-27T04:19:42.443Z,1015.04
2023-02-27T04:20:43.334Z,1015.01
2023-02-27T04:21:44.217Z,1015.03
2023-02-27T04:22:45.090Z,1015.04
2023-02-27T04:23:45.981Z,1015.04
2023-02-27T04:24:46.865Z,1015.03
2023-02-27T04:25:47.759Z,1015.03
2023-02-27T04:26:48.643Z,1015.03
2023-02-27T04:27:49.524Z,1015.04
2023-02-27T04:28:50.402Z,1015.05
2023-02-27T04:29:51.282Z,1015.04
2023-02-27T04:30:52.181Z,1015.05
2023-02-27T04:31:53.261Z,1015.04
2023-02-27T04:32:53.723Z,1015.06
2023-02-27T04:33:54.540Z,1015.04
2023-02-27T04:34:55.428Z,1015.04
2023-02-27T04:35:56.316Z,1015.04
2023-02-27T04:36:57.202Z,1015.04
2023-02-27T04:37:58.087Z,1015.06
2023-02-27T04:38:59.017Z,1015.04
2023-02-27T04:39:59.855Z,1015.05
2023-02-27T04:41:00.752Z,1015.05
2023-02-27T04:42:01.631Z,1015.06
2023-02-27T04:43:02.516Z,1015.06
2023-02-27T04:44:03.402Z,1015.06
2023-02-27T04:45:04.288Z,1015.04
2023-02-27T04:46:05.238Z,1015.05
2023-02-27T04:47:06.093Z,1015.06
2023-02-27T04:48:06.960Z,1015.06
2023-02-27T04:49:07.830Z,1015.06
2023-02-27T04:50:08.718Z,1015.06
2023-02-27T04:51:11.287Z,1015.06
2023-02-27T04:52:10.263Z,1015.06
2023-02-27T04:53:11.133Z,1015.08
2023-02-27T04:54:12.024Z,1015.07
2023-02-27T04:55:12.902Z,1015.06
2023-02-27T04:56:13.796Z,1015.07
2023-02-27T04:57:14.680Z,1015.05
2023-02-27T04:58:15.567Z,1015.07
2023-02-27T04:59:16.448Z,1015.05
2023-02-27T05:00:17.333Z,1015.07
2023-02-27T05:01:18.229Z,1015.06
2023-02-27T05:02:19.253Z,1015.05
2023-02-27T05:03:20.093Z,1015.07
2023-02-27T05:04:20.989Z,1015.07
2023-02-27T05:05:21.860Z,1015.07
2023-02-27T05:06:22.752Z,1015.04
2023-02-27T05:07:23.628Z,1015.05
2023-02-27T05:08:24.512Z,1015.05
2023-02-27T05:09:25.395Z,1015.03
2023-02-27T05:10:26.271Z,1015.02
2023-02-27T05:11:27.513Z,1015.03
2023-02-27T05:12:28.021Z,1015.02
2023-02-27T05:13:28.904Z,1015.01
2023-02-27T05:14:29.776Z,1015.05
2023-02-27T05:15:30.711Z,1015.03
2023-02-27T05:16:31.581Z,1015.06
2023-02-27T05:17:32.462Z,1015.05
2023-02-27T05:18:33.317Z,1015.04
2023-02-27T05:19:34.198Z,1015.04
2023-02-27T05:20:35.072Z,1015.02
2023-02-27T05:21:35.965Z,1015.03
2023-02-27T05:22:36.853Z,1015.01
2023-02-27T05:23:37.736Z,1015.02
2023-02-27T05:24:38.612Z,1015.02
2023-02-27T05:25:39.492Z,1015.04
2023-02-27T05:26:40.387Z,1015.04
2023-02-27T05:27:41.268Z,1015.02
2023-02-27T05:28:44.092Z,1015.02
2023-02-27T05:29:42.725Z,1015.03
2023-02-27T05:30:43.618Z,1015.02
2023-02-27T05:31:44.597Z,1015.03
2023-02-27T05:32:45.497Z,1015.03
2023-02-27T05:33:46.368Z,1015.01
2023-02-27T05:34:47.245Z,1015.01
2023-02-27T05:35:48.154Z,1015.01
2023-02-27T05:36:49.021Z,1015.03
2023-02-27T05:37:49.904Z,1015.04
2023-02-27T05:38:50.789Z,1015.07
2023-02-27T05:39:51.616Z,1015.09
2023-02-27T05:40:52.497Z,1015.07
2023-02-27T05:41:53.340Z,1015.05
2023-02-27T05:42:54.160Z,1015.07
2023-02-27T05:43:55.047Z,1015.08
2023-02-27T05:44:55.929Z,1015.08
2023-02-27T05:45:56.800Z,1015.08
2023-02-27T05:46:57.615Z,1015.09
2023-02-27T05:47:58.457Z,1015.11
2023-02-27T05:48:59.313Z,1015.13
2023-02-27T05:50:00.154Z,1015.13
2023-02-27T05:51:00.985Z,1015.15
2023-02-27T05:52:01.834Z,1015.16
2023-02-27T05:53:02.656Z,1015.16
2023-02-27T05:54:03.484Z,1015.14
2023-02-27T05:55:04.318Z,1015.14
2023-02-27T05:56:05.137Z,1015.16
2023-02-27T05:57:05.966Z,1015.16
2023-02-27T05:58:06.817Z,1015.15
2023-02-27T05:59:07.627Z,1015.14
2023-02-27T06:00:08.457Z,1015.16
2023-02-27T06:01:09.279Z,1015.17
2023-02-27T06:02:10.188Z,1015.15
2023-02-27T06:03:11.054Z,1015.18
2023-02-27T06:04:11.830Z,1015.14
2023-02-27T06:05:12.660Z,1015.14
2023-02-27T06:06:13.490Z,1015.13
2023-02-27T06:07:14.326Z,1015.13
2023-02-27T06:08:15.158Z,1015.13
2023-02-27T06:09:15.972Z,1015.15
2023-02-27T06:10:16.804Z,1015.13
2023-02-27T06:11:17.637Z,1015.13
2023-02-27T06:12:18.478Z,1015.12
2023-02-27T06:13:19.303Z,1015.14
2023-02-27T06:14:20.135Z,1015.15
2023-02-27T06:15:20.968Z,1015.17
2023-02-27T06:16:21.847Z,1015.19
2023-02-27T06:17:22.649Z,1015.21
2023-02-27T06:18:23.505Z,1015.21
2023-02-27T06:19:24.313Z,1015.22
2023-02-27T06:20:25.148Z,1015.21
2023-02-27T06:21:25.954Z,1015.23
2023-02-27T06:22:26.792Z,1015.25
2023-02-27T06:23:27.627Z,1015.24
2023-02-27T06:24:28.452Z,1015.28
2023-02-27T06:25:29.288Z,1015.30
2023-02-27T06:26:30.140Z,1015.31
2023-02-27T06:27:30.942Z,1015.32
2023-02-27T06:28:31.772Z,1015.34
2023-02-27T06:29:32.589Z,1015.37
2023-02-27T06:30:33.455Z,1015.36
2023-02-27T06:31:34.234Z,1015.37
2023-02-27T06:32:35.083Z,1015.38
2023-02-27T06:33:35.922Z,1015.39
2023-02-27T06:34:36.740Z,1015.42
2023-02-27T06:35:37.584Z,1015.42
2023-02-27T06:36:38.379Z,1015.43
2023-02-27T06:37:39.222Z,1015.44
2023-02-27T06:38:40.051Z,1015.45
2023-02-27T06:39:40.888Z,1015.45
2023-02-27T06:40:41.703Z,1015.46
2023-02-27T06:41:42.523Z,1015.46
2023-02-27T06:42:43.410Z,1015.46
2023-02-27T06:43:44.200Z,1015.48
2023-02-27T06:44:45.029Z,1015.49
2023-02-27T06:45:45.853Z,1015.51
2023-02-27T06:46:46.686Z,1015.51
2023-02-27T06:47:47.512Z,1015.52
2023-02-27T06:48:48.362Z,1015.51
2023-02-27T06:49:49.166Z,1015.51
2023-02-27T06:50:49.995Z,1015.52
2023-02-27T06:51:50.820Z,1015.50
2023-02-27T06:52:51.655Z,1015.52
2023-02-27T06:53:52.500Z,1015.50
2023-02-27T06:54:53.316Z,1015.51
2023-02-27T06:55:54.147Z,1015.51
2023-02-27T06:56:54.978Z,1015.53
2023-02-27T06:57:55.815Z,1015.52
2023-02-27T06:58:59.226Z,1015.53
2023-02-27T06:59:57.309Z,1015.52
2023-02-27T07:00:58.090Z,1015.53
2023-02-27T07:01:58.922Z,1015.53
2023-02-27T07:02:59.765Z,1015.52
2023-02-27T07:04:00.608Z,1015.54
2023-02-27T07:05:07.888Z,1015.55
2023-02-27T07:06:03.136Z,1015.53
2023-02-27T07:07:35.893Z,1015.55
2023-02-27T07:08:04.694Z,1015.55
2023-02-27T07:09:06.911Z,1015.54
2023-02-27T07:10:05.453Z,1015.55
2023-02-27T07:11:06.284Z,1015.54
2023-02-27T07:12:07.105Z,1015.53
2023-02-27T07:13:07.947Z,1015.54
2023-02-27T07:14:08.776Z,1015.52
2023-02-27T07:15:09.626Z,1015.53
2023-02-27T07:16:10.455Z,1015.52
2023-02-27T07:17:11.258Z,1015.51
2023-02-27T07:18:12.089Z,1015.54
2023-02-27T07:19:12.941Z,1015.54
2023-02-27T07:20:13.739Z,1015.51
2023-02-27T07:21:14.575Z,1015.52
2023-02-27T07:22:15.388Z,1015.53
2023-02-27T07:23:16.225Z,1015.54
2023-02-27T07:24:17.047Z,1015.55
2023-02-27T07:25:17.875Z,1015.54
2023-02-27T07:26:18.705Z,1015.54
2023-02-27T07:27:19.526Z,1015.56
2023-02-27T07:28:20.371Z,1015.56
2023-02-27T07:29:21.190Z,1015.56
2023-02-27T07:30:22.020Z,1015.58
2023-02-27T07:31:22.904Z,1015.56
2023-02-27T07:32:23.749Z,1015.58
2023-02-27T07:33:24.550Z,1015.56
2023-02-27T07:34:25.402Z,1015.58
2023-02-27T07:35:26.278Z,1015.58
2023-02-27T07:36:27.443Z,1015.60
2023-02-27T07:37:28.279Z,1015.64
2023-02-27T07:38:28.581Z,1015.66
2023-02-27T07:39:29.407Z,1015.65
2023-02-27T07:40:30.236Z,1015.65
2023-02-27T07:41:31.313Z,1015.64
2023-02-27T07:42:31.601Z,1015.64
2023-02-27T07:43:32.441Z,1015.65
2023-02-27T07:44:33.273Z,1015.62
2023-02-27T07:45:34.101Z,1015.61
2023-02-27T07:46:34.991Z,1015.62
2023-02-27T07:47:35.764Z,1015.67
2023-02-27T07:48:36.595Z,1015.66
2023-02-27T07:49:37.449Z,1015.67
2023-02-27T07:50:38.245Z,1015.68
2023-02-27T07:51:39.075Z,1015.68
2023-02-27T07:52:39.918Z,1015.68
2023-02-27T07:53:40.757Z,1015.70
2023-02-27T07:54:41.592Z,1015.69
2023-02-27T07:55:42.420Z,1015.71
2023-02-27T07:56:43.254Z,1015.71
2023-02-27T07:57:44.079Z,1015.73
2023-02-27T07:58:44.925Z,1015.71
2023-02-27T07:59:45.762Z,1015.73
2023-02-27T08:00:46.580Z,1015.71
2023-02-27T08:01:47.410Z,1015.70
2023-02-27T08:02:48.276Z,1015.73
2023-02-27T08:03:49.087Z,1015.75
2023-02-27T08:04:49.992Z,1015.77
2023-02-27T08:05:50.758Z,1015.78
2023-02-27T08:06:51.604Z,1015.78
2023-02-27T08:07:52.432Z,1015.77
2023-02-27T08:08:53.287Z,1015.80
2023-02-27T08:09:54.112Z,1015.79
2023-02-27T08:10:54.944Z,1015.78
2023-02-27T08:11:55.780Z,1015.78
2023-02-27T08:12:56.594Z,1015.79
2023-02-27T08:14:01.824Z,1015.82
2023-02-27T08:14:58.108Z,1015.82
2023-02-27T08:15:58.960Z,1015.86
2023-02-27T08:16:59.763Z,1015.85
2023-02-27T08:18:00.594Z,1015.86
2023-02-27T08:19:01.421Z,1015.88
2023-02-27T08:20:02.289Z,1015.88
2023-02-27T08:21:03.096Z,1015.87
2023-02-27T08:22:03.928Z,1015.89
2023-02-27T08:23:04.779Z,1015.92
2023-02-27T08:24:05.614Z,1015.88
2023-02-27T08:25:06.445Z,1015.90
2023-02-27T08:26:07.274Z,1015.90
2023-02-27T08:27:08.095Z,1015.90
2023-02-27T08:28:08.926Z,1015.92
2023-02-27T08:29:09.757Z,1015.94
2023-02-27T08:30:10.587Z,1015.93
2023-02-27T08:31:11.531Z,1015.95
2023-02-27T08:32:12.374Z,1015.94
2023-02-27T08:33:13.177Z,1015.95
2023-02-27T08:34:14.021Z,1015.95
2023-02-27T08:35:14.869Z,1015.95
2023-02-27T08:36:15.680Z,1015.99
2023-02-27T08:37:16.507Z,1016.00
2023-02-27T08:38:17.342Z,1015.96
2023-02-27T08:39:18.178Z,1015.97
2023-02-27T08:40:19.008Z,1015.98
2023-02-27T08:41:19.829Z,1015.99
2023-02-27T08:42:20.658Z,1016.01
2023-02-27T08:43:21.497Z,1016.03
2023-02-27T08:44:22.333Z,1016.04
2023-02-27T08:45:23.158Z,1016.02
2023-02-27T08:46:24.031Z,1016.02
2023-02-27T08:47:24.832Z,1016.03
2023-02-27T08:48:25.665Z,1016.05
2023-02-27T08:49:26.500Z,1016.04
2023-02-27T08:50:27.349Z,1016.03
2023-02-27T08:51:28.636Z,1016.05
2023-02-27T08:52:29.074Z,1016.07
2023-02-27T08:53:29.908Z,1016.05
2023-02-27T08:54:30.740Z,1016.06
2023-02-27T08:55:31.581Z,1016.07
2023-02-27T08:56:32.398Z,1016.08
2023-02-27T08:57:33.233Z,1016.05
2023-02-27T08:58:34.063Z,1016.10
2023-02-27T08:59:34.902Z,1016.09
2023-02-27T09:00:35.729Z,1016.08
2023-02-27T09:01:36.551Z,1016.09
2023-02-27T09:02:37.433Z,1016.10
2023-02-27T09:03:38.202Z,1016.10
2023-02-27T09:04:39.040Z,1016.10
2023-02-27T09:05:39.890Z,1016.13
2023-02-27T09:06:40.690Z,1016.13
2023-02-27T09:07:41.513Z,1016.14
2023-02-27T09:08:42.341Z,1016.15
2023-02-27T09:09:43.188Z,1016.15
2023-02-27T09:10:44.019Z,1016.15
2023-02-27T09:11:44.840Z,1016.13
2023-02-27T09:12:45.671Z,1016.13
2023-02-27T09:13:46.504Z,1016.14
2023-02-27T09:14:47.333Z,1016.13
2023-02-27T09:15:48.165Z,1016.14
2023-02-27T09:16:49.017Z,1016.16
2023-02-27T09:17:49.820Z,1016.19
2023-02-27T09:18:50.701Z,1016.20
2023-02-27T09:19:51.503Z,1016.20
2023-02-27T09:20:52.361Z,1016.23
2023-02-27T09:21:53.143Z,1016.24
2023-02-27T09:22:53.977Z,1016.27
2023-02-27T09:23:54.809Z,1016.26
2023-02-27T09:24:55.649Z,1016.26
2023-02-27T09:25:56.481Z,1016.26
2023-02-27T09:26:57.304Z,1016.29
2023-02-27T09:27:58.138Z,1016.31
2023-02-27T09:28:58.961Z,1016.29
2023-02-27T09:29:59.802Z,1016.29
2023-02-27T09:31:00.638Z,1016.31
2023-02-27T09:32:01.720Z,1016.29
2023-02-27T09:33:02.068Z,1016.32
2023-02-27T09:34:02.902Z,1016.34
2023-02-27T09:35:03.739Z,1016.33
2023-02-27T09:36:04.761Z,1016.36
2023-02-27T09:37:05.104Z,1016.34
2023-02-27T09:38:05.937Z,1016.34
2023-02-27T09:39:06.765Z,1016.34
2023-02-27T09:40:07.607Z,1016.37
2023-02-27T09:41:08.427Z,1016.40
2023-02-27T09:42:09.258Z,1016.43
2023-02-27T09:43:10.180Z,1016.41
2023-02-27T09:44:10.992Z,1016.43
2023-02-27T09:45:11.829Z,1016.46
2023-02-27T09:46:12.684Z,1016.45
2023-02-27T09:47:13.492Z,1016.44
2023-02-27T09:48:14.326Z,1016.44
2023-02-27T09:49:15.153Z,1016.45
2023-02-27T09:50:15.994Z,1016.45
2023-02-27T09:51:16.835Z,1016.46
2023-02-27T09:52:17.646Z,1016.48
2023-02-27T09:53:18.481Z,1016.45
2023-02-27T09:54:19.306Z,1016.48
2023-02-27T09:55:20.146Z,1016.51
2023-02-27T09:56:20.977Z,1016.50
2023-02-27T09:57:21.808Z,1016.54
2023-02-27T09:58:22.642Z,1016.55
2023-02-27T09:59:23.481Z,1016.56
2023-02-27T10:00:24.318Z,1016.59
2023-02-27T10:01:25.198Z,1016.58
2023-02-27T10:02:26.099Z,1016.61
2023-02-27T10:03:26.919Z,1016.65
2023-02-27T10:04:27.734Z,1016.60
2023-02-27T10:05:28.567Z,1016.67
2023-02-27T10:06:29.736Z,1016.69
2023-02-27T10:07:30.268Z,1016.71
2023-02-27T10:08:31.104Z,1016.67
2023-02-27T10:09:31.959Z,1016.71
2023-02-27T10:10:32.792Z,1016.71
2023-02-27T10:11:33.606Z,1016.72
2023-02-27T10:12:34.432Z,1016.76
2023-02-27T10:13:35.251Z,1016.77
2023-02-27T10:14:36.129Z,1016.78
2023-02-27T10:15:36.912Z,1016.76
2023-02-27T10:16:37.802Z,1016.77
2023-02-27T10:17:38.588Z,1016.77
2023-02-27T10:18:39.426Z,1016.77
2023-02-27T10:19:40.241Z,1016.77
2023-02-27T10:20:41.083Z,1016.77
2023-02-27T10:21:41.932Z,1016.79
2023-02-27T10:22:42.736Z,1016.79
2023-02-27T10:23:43.565Z,1016.78
2023-02-27T10:24:44.402Z,1016.81
2023-02-27T10:25:45.239Z,1016.83
2023-02-27T10:26:46.070Z,1016.85
2023-02-27T10:27:46.899Z,1016.85
2023-02-27T10:28:47.728Z,1016.84
2023-02-27T10:29:48.565Z,1016.86
2023-02-27T10:30:49.487Z,1016.83
2023-02-27T10:31:50.302Z,1016.81
2023-02-27T10:32:51.086Z,1016.83
2023-02-27T10:33:51.913Z,1016.78
2023-02-27T10:34:52.736Z,1016.78
2023-02-27T10:35:53.845Z,1016.81
2023-02-27T10:36:54.169Z,1016.82
2023-02-27T10:37:54.977Z,1016.84
2023-02-27T10:38:55.802Z,1016.86
2023-02-27T10:39:56.620Z,1016.83
2023-02-27T10:40:57.914Z,1016.87
2023-02-27T10:41:58.212Z,1016.86
2023-02-27T10:42:59.040Z,1016.87
2023-02-27T10:43:59.873Z,1016.86
2023-02-27T10:45:00.701Z,1016.86
2023-02-27T10:46:01.653Z,1016.85
2023-02-27T10:47:02.479Z,1016.86
2023-02-27T10:48:03.303Z,1016.84
2023-02-27T10:49:04.128Z,1016.84
2023-02-27T10:50:04.946Z,1016.84
2023-02-27T10:51:06.725Z,1016.85
2023-02-27T10:52:06.557Z,1016.86
2023-02-27T10:53:07.376Z,1016.87
2023-02-27T10:54:08.198Z,1016.87
2023-02-27T10:55:09.023Z,1016.86
2023-02-27T10:56:09.852Z,1016.88
2023-02-27T10:57:10.687Z,1016.90
2023-02-27T10:58:11.510Z,1016.89
2023-02-27T10:59:12.336Z,1016.85
2023-02-27T11:00:13.154Z,1016.83
2023-02-27T11:01:14.033Z,1016.84
2023-02-27T11:02:14.822Z,1016.86
2023-02-27T11:03:15.653Z,1016.84
2023-02-27T11:04:16.521Z,1016.86
2023-02-27T11:05:17.327Z,1016.85
2023-02-27T11:06:18.149Z,1016.82
2023-02-27T11:07:19.000Z,1016.82
2023-02-27T11:08:19.810Z,1016.82
2023-02-27T11:09:20.647Z,1016.82
2023-02-27T11:10:21.494Z,1016.80
2023-02-27T11:11:22.335Z,1016.80
2023-02-27T11:12:23.164Z,1016.78
2023-02-27T11:13:23.996Z,1016.80
2023-02-27T11:14:24.820Z,1016.77
2023-02-27T11:15:25.648Z,1016.79
2023-02-27T11:16:26.483Z,1016.77
2023-02-27T11:17:27.361Z,1016.76
2023-02-27T11:18:28.144Z,1016.76
2023-02-27T11:19:28.974Z,1016.75
2023-02-27T11:20:29.862Z,1016.77
2023-02-27T11:21:31.032Z,1016.76
2023-02-27T11:22:31.452Z,1016.77
2023-02-27T11:23:32.259Z,1016.76
2023-02-27T11:24:33.094Z,1016.80
2023-02-27T11:25:33.913Z,1016.78
2023-02-27T11:26:34.764Z,1016.79
2023-02-27T11:27:35.584Z,1016.75
2023-02-27T11:28:36.408Z,1016.73
2023-02-27T11:29:37.236Z,1016.70
2023-02-27T11:30:38.058Z,1016.76
2023-02-27T11:31:38.897Z,1016.73
2023-02-27T11:32:39.729Z,1016.74
2023-02-27T11:33:40.575Z,1016.75
2023-02-27T11:34:41.383Z,1016.74
2023-02-27T11:35:42.278Z,1016.74
2023-02-27T11:36:43.061Z,1016.71
2023-02-27T11:37:43.913Z,1016.71
2023-02-27T11:38:44.719Z,1016.72
2023-02-27T11:39:45.542Z,1016.70
2023-02-27T11:40:46.366Z,1016.71
2023-02-27T11:41:47.202Z,1016.72
2023-02-27T11:42:48.060Z,1016.74
2023-02-27T11:43:48.867Z,1016.75
2023-02-27T11:44:51.478Z,1016.75
2023-02-27T11:46:20.352Z,1016.73
2023-02-27T11:46:52.095Z,1016.73
2023-02-27T11:47:51.890Z,1016.76
2023-02-27T11:48:52.762Z,1016.73
2023-02-27T11:49:53.558Z,1016.75
2023-02-27T11:50:54.373Z,1016.74
2023-02-27T11:51:55.211Z,1016.73
2023-02-27T11:52:56.057Z,1016.76
2023-02-27T11:53:56.861Z,1016.76
2023-02-27T11:54:57.700Z,1016.78
2023-02-27T11:55:58.614Z,1016.78
2023-02-27T11:56:59.432Z,1016.75
2023-02-27T11:58:00.263Z,1016.76
2023-02-27T11:59:01.103Z,1016.76
2023-02-27T12:00:01.921Z,1016.77
2023-02-27T12:01:02.742Z,1016.77
2023-02-27T12:02:03.579Z,1016.76
2023-02-27T12:03:04.445Z,1016.77
2023-02-27T12:04:05.313Z,1016.76
2023-02-27T12:05:06.125Z,1016.77
2023-02-27T12:06:06.958Z,1016.79
2023-02-27T12:07:07.797Z,1016.76
2023-02-27T12:08:08.654Z,1016.78
2023-02-27T12:09:09.436Z,1016.77
2023-02-27T12:10:10.267Z,1016.79
2023-02-27T12:11:14.563Z,1016.77
2023-02-27T12:12:12.093Z,1016.77
2023-02-27T12:13:12.904Z,1016.83
2023-02-27T12:14:13.735Z,1016.82
2023-02-27T12:15:14.565Z,1016.82
2023-02-27T12:16:15.458Z,1016.83